sensor_id;sensor_type;location;lat;lon;timestamp;P1;durP1;ratioP1;P2;durP2;ratioP2
78664;SDS011;67981;51.022;-2.870;2023-04-23T00:02:24;13.00;;;6.85;;
78664;SDS011;67981;51.022;-2.870;2023-04-23T00:04:51;12.38;;;7.07;;
78664;SDS011;67981;51.022;-2.870;2023-04-23T00:07:19;14.07;;;6.93;;
78664;SDS011;67981;51.022;-2.870;2023-04-23T00:09:46;12.63;;;7.53;;
78664;SDS011;67981;51.022;-2.870;2023-04-23T00:12:11;13.13;;;7.50;;
78664;SDS011;67981;51.022;-2.870;2023-04-23T00:14:37;12.98;;;7.35;;
78664;SDS011;67981;51.022;-2.870;2023-04-23T00:17:03;11.85;;;7.65;;
78664;SDS011;67981;51.022;-2.870;2023-04-23T00:19:28;13.85;;;6.88;;
78664;SDS011;67981;51.022;-2.870;2023-04-23T00:21:54;15.32;;;7.03;;
78664;SDS011;67981;51.022;-2.870;2023-04-23T00:24:19;15.52;;;7.82;;
78664;SDS011;67981;51.022;-2.870;2023-04-23T00:26:45;12.43;;;6.85;;
78664;SDS011;67981;51.022;-2.870;2023-04-23T00:29:10;17.50;;;8.80;;
78664;SDS011;67981;51.022;-2.870;2023-04-23T00:31:36;12.98;;;7.72;;
78664;SDS011;67981;51.022;-2.870;2023-04-23T00:34:02;14.20;;;8.60;;
78664;SDS011;67981;51.022;-2.870;2023-04-23T00:36:27;13.88;;;7.53;;
78664;SDS011;67981;51.022;-2.870;2023-04-23T00:38:53;17.48;;;9.35;;
78664;SDS011;67981;51.022;-2.870;2023-04-23T00:41:18;11.88;;;7.75;;
78664;SDS011;67981;51.022;-2.870;2023-04-23T00:43:44;13.80;;;7.70;;
78664;SDS011;67981;51.022;-2.870;2023-04-23T00:46:10;16.00;;;9.13;;
78664;SDS011;67981;51.022;-2.870;2023-04-23T00:48:35;15.90;;;9.10;;
78664;SDS011;67981;51.022;-2.870;2023-04-23T00:51:04;16.88;;;8.25;;
78664;SDS011;67981;51.022;-2.870;2023-04-23T00:53:31;15.48;;;8.85;;
78664;SDS011;67981;51.022;-2.870;2023-04-23T00:55:57;17.92;;;9.85;;
78664;SDS011;67981;51.022;-2.870;2023-04-23T00:58:27;17.88;;;9.40;;
78664;SDS011;67981;51.022;-2.870;2023-04-23T01:00:53;17.70;;;10.38;;
78664;SDS011;67981;51.022;-2.870;2023-04-23T01:03:19;21.02;;;10.00;;
78664;SDS011;67981;51.022;-2.870;2023-04-23T01:05:46;21.15;;;11.27;;
78664;SDS011;67981;51.022;-2.870;2023-04-23T01:08:13;19.30;;;10.18;;
78664;SDS011;67981;51.022;-2.870;2023-04-23T01:10:40;22.33;;;10.50;;
78664;SDS011;67981;51.022;-2.870;2023-04-23T01:13:07;23.02;;;11.75;;
78664;SDS011;67981;51.022;-2.870;2023-04-23T01:15:33;22.42;;;11.90;;
78664;SDS011;67981;51.022;-2.870;2023-04-23T01:17:59;26.52;;;11.90;;
78664;SDS011;67981;51.022;-2.870;2023-04-23T01:20:24;20.92;;;11.80;;
78664;SDS011;67981;51.022;-2.870;2023-04-23T01:22:50;23.10;;;13.00;;
78664;SDS011;67981;51.022;-2.870;2023-04-23T01:25:15;28.35;;;14.98;;
78664;SDS011;67981;51.022;-2.870;2023-04-23T01:27:41;21.42;;;12.10;;
78664;SDS011;67981;51.022;-2.870;2023-04-23T01:30:07;24.17;;;13.25;;
78664;SDS011;67981;51.022;-2.870;2023-04-23T01:32:33;28.55;;;13.80;;
78664;SDS011;67981;51.022;-2.870;2023-04-23T01:35:00;26.63;;;14.00;;
78664;SDS011;67981;51.022;-2.870;2023-04-23T01:37:26;28.17;;;14.95;;
78664;SDS011;67981;51.022;-2.870;2023-04-23T01:39:53;29.05;;;13.45;;
78664;SDS011;67981;51.022;-2.870;2023-04-23T01:42:18;29.80;;;16.42;;
78664;SDS011;67981;51.022;-2.870;2023-04-23T01:44:44;27.77;;;14.00;;
78664;SDS011;67981;51.022;-2.870;2023-04-23T01:47:09;27.67;;;14.50;;
78664;SDS011;67981;51.022;-2.870;2023-04-23T01:49:35;23.92;;;13.18;;
78664;SDS011;67981;51.022;-2.870;2023-04-23T01:52:00;27.33;;;14.02;;
78664;SDS011;67981;51.022;-2.870;2023-04-23T01:54:26;28.03;;;15.20;;
78664;SDS011;67981;51.022;-2.870;2023-04-23T01:56:51;28.02;;;14.57;;
78664;SDS011;67981;51.022;-2.870;2023-04-23T01:59:19;30.10;;;16.27;;
78664;SDS011;67981;51.022;-2.870;2023-04-23T02:01:45;33.17;;;16.42;;
78664;SDS011;67981;51.022;-2.870;2023-04-23T02:04:12;33.08;;;16.20;;
78664;SDS011;67981;51.022;-2.870;2023-04-23T02:06:39;34.47;;;17.45;;
78664;SDS011;67981;51.022;-2.870;2023-04-23T02:09:06;33.63;;;17.05;;
78664;SDS011;67981;51.022;-2.870;2023-04-23T02:11:32;31.30;;;17.30;;
78664;SDS011;67981;51.022;-2.870;2023-04-23T02:13:57;39.72;;;17.33;;
78664;SDS011;67981;51.022;-2.870;2023-04-23T02:16:23;39.58;;;18.77;;
78664;SDS011;67981;51.022;-2.870;2023-04-23T02:18:49;41.00;;;19.60;;
78664;SDS011;67981;51.022;-2.870;2023-04-23T02:21:14;36.95;;;17.67;;
78664;SDS011;67981;51.022;-2.870;2023-04-23T02:23:40;40.65;;;18.45;;
78664;SDS011;67981;51.022;-2.870;2023-04-23T02:26:05;39.22;;;17.80;;
78664;SDS011;67981;51.022;-2.870;2023-04-23T02:28:32;39.38;;;19.67;;
78664;SDS011;67981;51.022;-2.870;2023-04-23T02:30:57;37.83;;;18.13;;
78664;SDS011;67981;51.022;-2.870;2023-04-23T02:33:23;38.70;;;19.13;;
78664;SDS011;67981;51.022;-2.870;2023-04-23T02:35:49;38.97;;;19.35;;
78664;SDS011;67981;51.022;-2.870;2023-04-23T02:38:15;40.65;;;20.13;;
78664;SDS011;67981;51.022;-2.870;2023-04-23T02:40:40;33.67;;;16.73;;
78664;SDS011;67981;51.022;-2.870;2023-04-23T02:43:06;26.92;;;14.23;;
78664;SDS011;67981;51.022;-2.870;2023-04-23T02:45:31;28.70;;;15.20;;
78664;SDS011;67981;51.022;-2.870;2023-04-23T02:47:57;25.37;;;14.10;;
78664;SDS011;67981;51.022;-2.870;2023-04-23T02:50:22;22.98;;;12.13;;
78664;SDS011;67981;51.022;-2.870;2023-04-23T02:52:47;21.55;;;11.65;;
78664;SDS011;67981;51.022;-2.870;2023-04-23T02:55:13;23.58;;;12.82;;
78664;SDS011;67981;51.022;-2.870;2023-04-23T02:57:39;19.05;;;10.52;;
78664;SDS011;67981;51.022;-2.870;2023-04-23T03:00:05;15.52;;;9.80;;
78664;SDS011;67981;51.022;-2.870;2023-04-23T03:02:31;19.75;;;9.82;;
78664;SDS011;67981;51.022;-2.870;2023-04-23T03:04:56;21.80;;;11.13;;
78664;SDS011;67981;51.022;-2.870;2023-04-23T03:07:22;24.08;;;11.70;;
78664;SDS011;67981;51.022;-2.870;2023-04-23T03:09:47;22.80;;;12.20;;
78664;SDS011;67981;51.022;-2.870;2023-04-23T03:12:13;21.65;;;11.65;;
78664;SDS011;67981;51.022;-2.870;2023-04-23T03:14:38;20.33;;;10.67;;
78664;SDS011;67981;51.022;-2.870;2023-04-23T03:17:03;20.60;;;11.23;;
78664;SDS011;67981;51.022;-2.870;2023-04-23T03:19:29;20.15;;;9.60;;
78664;SDS011;67981;51.022;-2.870;2023-04-23T03:21:54;17.00;;;9.57;;
78664;SDS011;67981;51.022;-2.870;2023-04-23T03:24:20;18.63;;;10.50;;
78664;SDS011;67981;51.022;-2.870;2023-04-23T03:26:46;18.58;;;9.80;;
78664;SDS011;67981;51.022;-2.870;2023-04-23T03:29:12;20.40;;;10.60;;
78664;SDS011;67981;51.022;-2.870;2023-04-23T03:31:37;18.98;;;11.10;;
78664;SDS011;67981;51.022;-2.870;2023-04-23T03:34:02;18.52;;;10.30;;
78664;SDS011;67981;51.022;-2.870;2023-04-23T03:36:28;18.75;;;10.43;;
78664;SDS011;67981;51.022;-2.870;2023-04-23T03:38:53;17.00;;;9.45;;
78664;SDS011;67981;51.022;-2.870;2023-04-23T03:41:19;16.08;;;9.50;;
78664;SDS011;67981;51.022;-2.870;2023-04-23T03:43:44;20.90;;;10.38;;
78664;SDS011;67981;51.022;-2.870;2023-04-23T03:46:09;19.60;;;10.75;;
78664;SDS011;67981;51.022;-2.870;2023-04-23T03:48:35;20.35;;;10.77;;
78664;SDS011;67981;51.022;-2.870;2023-04-23T03:51:00;19.27;;;10.10;;
78664;SDS011;67981;51.022;-2.870;2023-04-23T03:53:25;19.25;;;10.65;;
78664;SDS011;67981;51.022;-2.870;2023-04-23T03:55:51;20.57;;;10.23;;
78664;SDS011;67981;51.022;-2.870;2023-04-23T03:58:16;19.47;;;10.23;;
78664;SDS011;67981;51.022;-2.870;2023-04-23T04:00:42;19.98;;;11.32;;
78664;SDS011;67981;51.022;-2.870;2023-04-23T04:03:07;23.10;;;11.85;;
78664;SDS011;67981;51.022;-2.870;2023-04-23T04:05:33;18.42;;;10.68;;
78664;SDS011;67981;51.022;-2.870;2023-04-23T04:07:59;17.52;;;10.27;;
78664;SDS011;67981;51.022;-2.870;2023-04-23T04:10:25;19.73;;;9.55;;
78664;SDS011;67981;51.022;-2.870;2023-04-23T04:12:51;19.33;;;11.38;;
78664;SDS011;67981;51.022;-2.870;2023-04-23T04:15:17;20.98;;;12.05;;
78664;SDS011;67981;51.022;-2.870;2023-04-23T04:17:44;20.15;;;10.98;;
78664;SDS011;67981;51.022;-2.870;2023-04-23T04:20:10;18.52;;;10.23;;
78664;SDS011;67981;51.022;-2.870;2023-04-23T04:22:36;17.90;;;10.60;;
78664;SDS011;67981;51.022;-2.870;2023-04-23T04:25:01;21.17;;;11.35;;
78664;SDS011;67981;51.022;-2.870;2023-04-23T04:27:29;20.50;;;11.73;;
78664;SDS011;67981;51.022;-2.870;2023-04-23T04:32:22;21.10;;;10.10;;
78664;SDS011;67981;51.022;-2.870;2023-04-23T04:34:48;21.10;;;12.45;;
78664;SDS011;67981;51.022;-2.870;2023-04-23T04:37:14;20.70;;;11.02;;
78664;SDS011;67981;51.022;-2.870;2023-04-23T04:39:40;24.10;;;11.00;;
78664;SDS011;67981;51.022;-2.870;2023-04-23T04:42:06;22.02;;;10.88;;
78664;SDS011;67981;51.022;-2.870;2023-04-23T04:44:32;21.15;;;11.45;;
78664;SDS011;67981;51.022;-2.870;2023-04-23T04:46:57;21.98;;;11.48;;
78664;SDS011;67981;51.022;-2.870;2023-04-23T04:49:23;20.95;;;11.45;;
78664;SDS011;67981;51.022;-2.870;2023-04-23T04:51:48;20.88;;;11.35;;
78664;SDS011;67981;51.022;-2.870;2023-04-23T04:54:14;24.63;;;13.00;;
78664;SDS011;67981;51.022;-2.870;2023-04-23T04:56:39;24.55;;;12.35;;
78664;SDS011;67981;51.022;-2.870;2023-04-23T04:59:04;20.38;;;11.13;;
78664;SDS011;67981;51.022;-2.870;2023-04-23T05:01:30;22.30;;;12.30;;
78664;SDS011;67981;51.022;-2.870;2023-04-23T05:03:57;22.77;;;12.55;;
78664;SDS011;67981;51.022;-2.870;2023-04-23T05:06:23;21.42;;;12.05;;
78664;SDS011;67981;51.022;-2.870;2023-04-23T05:08:48;23.63;;;12.50;;
78664;SDS011;67981;51.022;-2.870;2023-04-23T05:11:17;22.58;;;12.40;;
78664;SDS011;67981;51.022;-2.870;2023-04-23T05:13:46;22.77;;;11.88;;
78664;SDS011;67981;51.022;-2.870;2023-04-23T05:16:12;20.77;;;11.73;;
78664;SDS011;67981;51.022;-2.870;2023-04-23T05:18:38;21.85;;;11.57;;
78664;SDS011;67981;51.022;-2.870;2023-04-23T05:21:04;23.85;;;13.38;;
78664;SDS011;67981;51.022;-2.870;2023-04-23T05:23:31;22.88;;;12.10;;
78664;SDS011;67981;51.022;-2.870;2023-04-23T05:25:56;22.98;;;12.05;;
78664;SDS011;67981;51.022;-2.870;2023-04-23T05:28:23;23.73;;;13.07;;
78664;SDS011;67981;51.022;-2.870;2023-04-23T05:30:49;25.10;;;13.43;;
78664;SDS011;67981;51.022;-2.870;2023-04-23T05:33:15;24.83;;;13.85;;
78664;SDS011;67981;51.022;-2.870;2023-04-23T05:35:40;22.70;;;12.25;;
78664;SDS011;67981;51.022;-2.870;2023-04-23T05:38:06;23.10;;;13.43;;
78664;SDS011;67981;51.022;-2.870;2023-04-23T05:40:32;26.50;;;13.60;;
78664;SDS011;67981;51.022;-2.870;2023-04-23T05:42:57;26.65;;;14.57;;
78664;SDS011;67981;51.022;-2.870;2023-04-23T05:45:23;24.73;;;12.48;;
78664;SDS011;67981;51.022;-2.870;2023-04-23T05:47:49;26.23;;;14.43;;
78664;SDS011;67981;51.022;-2.870;2023-04-23T05:50:15;26.63;;;14.95;;
78664;SDS011;67981;51.022;-2.870;2023-04-23T05:52:41;27.27;;;14.18;;
78664;SDS011;67981;51.022;-2.870;2023-04-23T05:55:06;25.77;;;14.32;;
78664;SDS011;67981;51.022;-2.870;2023-04-23T05:57:33;22.45;;;13.63;;
78664;SDS011;67981;51.022;-2.870;2023-04-23T06:00:00;25.27;;;13.82;;
78664;SDS011;67981;51.022;-2.870;2023-04-23T06:02:25;28.80;;;15.85;;
78664;SDS011;67981;51.022;-2.870;2023-04-23T06:04:52;26.60;;;13.00;;
78664;SDS011;67981;51.022;-2.870;2023-04-23T06:07:17;29.48;;;14.98;;
78664;SDS011;67981;51.022;-2.870;2023-04-23T06:09:43;26.60;;;13.33;;
78664;SDS011;67981;51.022;-2.870;2023-04-23T06:12:09;31.55;;;13.95;;
78664;SDS011;67981;51.022;-2.870;2023-04-23T06:14:35;28.65;;;15.07;;
78664;SDS011;67981;51.022;-2.870;2023-04-23T06:17:00;30.20;;;15.18;;
78664;SDS011;67981;51.022;-2.870;2023-04-23T06:19:26;28.38;;;14.63;;
78664;SDS011;67981;51.022;-2.870;2023-04-23T06:21:52;31.35;;;15.85;;
78664;SDS011;67981;51.022;-2.870;2023-04-23T06:24:18;27.05;;;14.13;;
78664;SDS011;67981;51.022;-2.870;2023-04-23T06:26:43;33.53;;;15.20;;
78664;SDS011;67981;51.022;-2.870;2023-04-23T06:29:08;29.52;;;14.27;;
78664;SDS011;67981;51.022;-2.870;2023-04-23T06:31:34;30.15;;;16.05;;
78664;SDS011;67981;51.022;-2.870;2023-04-23T06:34:00;26.00;;;13.88;;
78664;SDS011;67981;51.022;-2.870;2023-04-23T06:36:25;29.23;;;15.30;;
78664;SDS011;67981;51.022;-2.870;2023-04-23T06:38:51;27.35;;;14.55;;
78664;SDS011;67981;51.022;-2.870;2023-04-23T06:41:16;23.60;;;11.60;;
78664;SDS011;67981;51.022;-2.870;2023-04-23T06:43:42;24.40;;;13.60;;
78664;SDS011;67981;51.022;-2.870;2023-04-23T06:46:07;22.60;;;13.02;;
78664;SDS011;67981;51.022;-2.870;2023-04-23T06:48:32;24.48;;;13.88;;
78664;SDS011;67981;51.022;-2.870;2023-04-23T06:50:58;21.23;;;12.45;;
78664;SDS011;67981;51.022;-2.870;2023-04-23T06:53:23;23.42;;;13.57;;
78664;SDS011;67981;51.022;-2.870;2023-04-23T06:55:49;22.23;;;11.00;;
78664;SDS011;67981;51.022;-2.870;2023-04-23T06:58:15;23.70;;;12.80;;
78664;SDS011;67981;51.022;-2.870;2023-04-23T07:00:41;22.52;;;12.02;;
78664;SDS011;67981;51.022;-2.870;2023-04-23T07:03:07;22.08;;;13.05;;
78664;SDS011;67981;51.022;-2.870;2023-04-23T07:05:32;23.20;;;14.25;;
78664;SDS011;67981;51.022;-2.870;2023-04-23T07:07:58;22.30;;;12.18;;
78664;SDS011;67981;51.022;-2.870;2023-04-23T07:10:23;21.25;;;12.15;;
78664;SDS011;67981;51.022;-2.870;2023-04-23T07:12:49;20.35;;;12.10;;
78664;SDS011;67981;51.022;-2.870;2023-04-23T07:15:14;20.88;;;11.88;;
78664;SDS011;67981;51.022;-2.870;2023-04-23T07:17:40;17.60;;;10.38;;
78664;SDS011;67981;51.022;-2.870;2023-04-23T07:20:05;21.30;;;11.07;;
78664;SDS011;67981;51.022;-2.870;2023-04-23T07:22:32;18.88;;;10.80;;
78664;SDS011;67981;51.022;-2.870;2023-04-23T07:24:58;20.42;;;13.02;;
78664;SDS011;67981;51.022;-2.870;2023-04-23T07:27:24;18.65;;;10.55;;
78664;SDS011;67981;51.022;-2.870;2023-04-23T07:29:50;20.92;;;12.38;;
78664;SDS011;67981;51.022;-2.870;2023-04-23T07:32:16;20.13;;;11.45;;
78664;SDS011;67981;51.022;-2.870;2023-04-23T07:34:41;21.15;;;10.60;;
78664;SDS011;67981;51.022;-2.870;2023-04-23T07:37:07;21.90;;;12.00;;
78664;SDS011;67981;51.022;-2.870;2023-04-23T07:39:33;19.20;;;11.13;;
78664;SDS011;67981;51.022;-2.870;2023-04-23T07:41:58;20.42;;;11.68;;
78664;SDS011;67981;51.022;-2.870;2023-04-23T07:44:24;19.67;;;11.43;;
78664;SDS011;67981;51.022;-2.870;2023-04-23T07:46:50;20.52;;;11.55;;
78664;SDS011;67981;51.022;-2.870;2023-04-23T07:49:16;20.40;;;11.25;;
78664;SDS011;67981;51.022;-2.870;2023-04-23T07:51:41;23.55;;;12.15;;
78664;SDS011;67981;51.022;-2.870;2023-04-23T07:54:07;20.67;;;10.75;;
78664;SDS011;67981;51.022;-2.870;2023-04-23T07:56:33;20.88;;;12.40;;
78664;SDS011;67981;51.022;-2.870;2023-04-23T07:58:58;22.58;;;11.35;;
78664;SDS011;67981;51.022;-2.870;2023-04-23T08:01:24;21.35;;;11.35;;
78664;SDS011;67981;51.022;-2.870;2023-04-23T08:03:50;23.67;;;12.00;;
78664;SDS011;67981;51.022;-2.870;2023-04-23T08:06:16;22.20;;;12.05;;
78664;SDS011;67981;51.022;-2.870;2023-04-23T08:08:42;18.85;;;11.48;;
78664;SDS011;67981;51.022;-2.870;2023-04-23T08:11:07;19.33;;;11.73;;
78664;SDS011;67981;51.022;-2.870;2023-04-23T08:13:33;18.83;;;11.20;;
78664;SDS011;67981;51.022;-2.870;2023-04-23T08:15:58;20.27;;;10.55;;
78664;SDS011;67981;51.022;-2.870;2023-04-23T08:18:24;19.38;;;11.57;;
78664;SDS011;67981;51.022;-2.870;2023-04-23T08:20:49;21.30;;;11.50;;
78664;SDS011;67981;51.022;-2.870;2023-04-23T08:23:16;20.48;;;11.45;;
78664;SDS011;67981;51.022;-2.870;2023-04-23T08:25:41;18.27;;;10.75;;
78664;SDS011;67981;51.022;-2.870;2023-04-23T08:28:07;20.33;;;11.25;;
78664;SDS011;67981;51.022;-2.870;2023-04-23T08:30:32;18.25;;;10.52;;
78664;SDS011;67981;51.022;-2.870;2023-04-23T08:32:57;18.05;;;11.02;;
78664;SDS011;67981;51.022;-2.870;2023-04-23T08:35:23;23.20;;;10.95;;
78664;SDS011;67981;51.022;-2.870;2023-04-23T08:37:48;16.88;;;10.77;;
78664;SDS011;67981;51.022;-2.870;2023-04-23T08:40:14;17.23;;;10.70;;
78664;SDS011;67981;51.022;-2.870;2023-04-23T08:45:21;16.05;;;9.82;;
78664;SDS011;67981;51.022;-2.870;2023-04-23T08:47:47;16.25;;;10.25;;
78664;SDS011;67981;51.022;-2.870;2023-04-23T08:50:13;15.60;;;10.00;;
78664;SDS011;67981;51.022;-2.870;2023-04-23T08:52:44;16.13;;;9.93;;
78664;SDS011;67981;51.022;-2.870;2023-04-23T08:55:17;16.75;;;10.38;;
78664;SDS011;67981;51.022;-2.870;2023-04-23T08:57:45;14.55;;;9.65;;
78664;SDS011;67981;51.022;-2.870;2023-04-23T09:00:11;13.98;;;9.82;;
78664;SDS011;67981;51.022;-2.870;2023-04-23T09:02:39;13.95;;;9.45;;
78664;SDS011;67981;51.022;-2.870;2023-04-23T09:05:06;15.27;;;8.95;;
78664;SDS011;67981;51.022;-2.870;2023-04-23T09:07:32;14.98;;;9.73;;
78664;SDS011;67981;51.022;-2.870;2023-04-23T09:09:59;15.45;;;9.00;;
78664;SDS011;67981;51.022;-2.870;2023-04-23T09:12:25;12.95;;;8.52;;
78664;SDS011;67981;51.022;-2.870;2023-04-23T09:14:51;14.93;;;8.90;;
78664;SDS011;67981;51.022;-2.870;2023-04-23T09:17:19;13.25;;;9.35;;
78664;SDS011;67981;51.022;-2.870;2023-04-23T09:19:46;13.27;;;8.98;;
78664;SDS011;67981;51.022;-2.870;2023-04-23T09:22:14;16.15;;;9.70;;
78664;SDS011;67981;51.022;-2.870;2023-04-23T09:24:42;14.65;;;9.98;;
78664;SDS011;67981;51.022;-2.870;2023-04-23T09:27:08;11.18;;;8.43;;
78664;SDS011;67981;51.022;-2.870;2023-04-23T09:29:34;13.25;;;9.30;;
78664;SDS011;67981;51.022;-2.870;2023-04-23T09:32:09;16.30;;;8.98;;
78664;SDS011;67981;51.022;-2.870;2023-04-23T09:34:34;14.82;;;9.27;;
78664;SDS011;67981;51.022;-2.870;2023-04-23T09:37:04;15.27;;;9.27;;
78664;SDS011;67981;51.022;-2.870;2023-04-23T09:39:32;13.70;;;9.52;;
78664;SDS011;67981;51.022;-2.870;2023-04-23T09:42:02;14.80;;;9.38;;
78664;SDS011;67981;51.022;-2.870;2023-04-23T09:44:32;15.73;;;9.32;;
78664;SDS011;67981;51.022;-2.870;2023-04-23T09:47:07;15.88;;;10.30;;
78664;SDS011;67981;51.022;-2.870;2023-04-23T09:52:19;15.93;;;10.45;;
78664;SDS011;67981;51.022;-2.870;2023-04-23T09:54:46;17.35;;;10.85;;
78664;SDS011;67981;51.022;-2.870;2023-04-23T09:57:12;18.15;;;11.55;;
78664;SDS011;67981;51.022;-2.870;2023-04-23T09:59:37;19.27;;;11.60;;
78664;SDS011;67981;51.022;-2.870;2023-04-23T10:02:03;16.92;;;10.63;;
78664;SDS011;67981;51.022;-2.870;2023-04-23T10:04:30;18.70;;;11.00;;
78664;SDS011;67981;51.022;-2.870;2023-04-23T10:06:57;16.92;;;9.77;;
78664;SDS011;67981;51.022;-2.870;2023-04-23T10:09:24;18.15;;;10.82;;
78664;SDS011;67981;51.022;-2.870;2023-04-23T10:11:55;14.63;;;9.23;;
78664;SDS011;67981;51.022;-2.870;2023-04-23T10:14:23;13.93;;;9.05;;
78664;SDS011;67981;51.022;-2.870;2023-04-23T10:16:50;15.05;;;10.55;;
78664;SDS011;67981;51.022;-2.870;2023-04-23T10:19:21;15.25;;;9.52;;
78664;SDS011;67981;51.022;-2.870;2023-04-23T10:22:09;13.48;;;9.43;;
78664;SDS011;67981;51.022;-2.870;2023-04-23T10:24:37;13.55;;;9.10;;
78664;SDS011;67981;51.022;-2.870;2023-04-23T10:27:05;13.88;;;8.98;;
78664;SDS011;67981;51.022;-2.870;2023-04-23T10:29:37;10.70;;;7.10;;
78664;SDS011;67981;51.022;-2.870;2023-04-23T10:32:03;11.82;;;7.40;;
78664;SDS011;67981;51.022;-2.870;2023-04-23T10:34:30;12.52;;;7.93;;
78664;SDS011;67981;51.022;-2.870;2023-04-23T10:36:57;14.45;;;7.80;;
78664;SDS011;67981;51.022;-2.870;2023-04-23T10:39:24;12.85;;;9.55;;
78664;SDS011;67981;51.022;-2.870;2023-04-23T10:41:51;10.30;;;7.53;;
78664;SDS011;67981;51.022;-2.870;2023-04-23T10:44:18;12.93;;;7.65;;
78664;SDS011;67981;51.022;-2.870;2023-04-23T10:46:55;9.98;;;6.93;;
78664;SDS011;67981;51.022;-2.870;2023-04-23T10:49:22;10.10;;;6.93;;
78664;SDS011;67981;51.022;-2.870;2023-04-23T10:51:56;12.05;;;6.93;;
78664;SDS011;67981;51.022;-2.870;2023-04-23T10:54:23;9.18;;;6.47;;
78664;SDS011;67981;51.022;-2.870;2023-04-23T10:56:56;10.30;;;6.75;;
78664;SDS011;67981;51.022;-2.870;2023-04-23T10:59:23;11.15;;;6.80;;
78664;SDS011;67981;51.022;-2.870;2023-04-23T11:01:49;12.55;;;7.38;;
78664;SDS011;67981;51.022;-2.870;2023-04-23T11:04:18;11.80;;;8.35;;
78664;SDS011;67981;51.022;-2.870;2023-04-23T11:12:02;11.30;;;7.03;;
78664;SDS011;67981;51.022;-2.870;2023-04-23T11:14:34;11.02;;;7.63;;
78664;SDS011;67981;51.022;-2.870;2023-04-23T11:17:05;12.35;;;7.68;;
78664;SDS011;67981;51.022;-2.870;2023-04-23T11:19:35;9.60;;;6.38;;
78664;SDS011;67981;51.022;-2.870;2023-04-23T11:22:02;12.82;;;8.10;;
78664;SDS011;67981;51.022;-2.870;2023-04-23T11:24:44;13.40;;;7.47;;
78664;SDS011;67981;51.022;-2.870;2023-04-23T11:27:11;9.75;;;7.25;;
78664;SDS011;67981;51.022;-2.870;2023-04-23T11:29:39;11.45;;;7.68;;
78664;SDS011;67981;51.022;-2.870;2023-04-23T11:32:06;12.35;;;7.40;;
78664;SDS011;67981;51.022;-2.870;2023-04-23T11:34:38;12.15;;;7.25;;
78664;SDS011;67981;51.022;-2.870;2023-04-23T11:37:04;12.20;;;7.50;;
78664;SDS011;67981;51.022;-2.870;2023-04-23T11:39:30;11.25;;;7.30;;
78664;SDS011;67981;51.022;-2.870;2023-04-23T11:41:56;11.38;;;7.78;;
78664;SDS011;67981;51.022;-2.870;2023-04-23T11:44:23;11.00;;;6.88;;
78664;SDS011;67981;51.022;-2.870;2023-04-23T11:46:49;12.55;;;7.50;;
78664;SDS011;67981;51.022;-2.870;2023-04-23T11:49:14;11.40;;;7.35;;
78664;SDS011;67981;51.022;-2.870;2023-04-23T11:51:44;11.48;;;6.95;;
78664;SDS011;67981;51.022;-2.870;2023-04-23T11:54:10;11.88;;;6.50;;
78664;SDS011;67981;51.022;-2.870;2023-04-23T11:56:37;9.55;;;6.35;;
78664;SDS011;67981;51.022;-2.870;2023-04-23T11:59:03;10.30;;;7.30;;
78664;SDS011;67981;51.022;-2.870;2023-04-23T12:04:18;10.85;;;6.47;;
78664;SDS011;67981;51.022;-2.870;2023-04-23T12:06:45;11.23;;;6.57;;
78664;SDS011;67981;51.022;-2.870;2023-04-23T12:09:12;11.70;;;6.40;;
78664;SDS011;67981;51.022;-2.870;2023-04-23T12:11:39;9.50;;;6.82;;
78664;SDS011;67981;51.022;-2.870;2023-04-23T12:14:06;10.35;;;7.18;;
78664;SDS011;67981;51.022;-2.870;2023-04-23T12:19:46;9.77;;;4.97;;
78664;SDS011;67981;51.022;-2.870;2023-04-23T12:24:23;7.50;;;5.40;;
78664;SDS011;67981;51.022;-2.870;2023-04-23T12:26:52;8.90;;;5.82;;
78664;SDS011;67981;51.022;-2.870;2023-04-23T12:29:20;8.93;;;4.75;;
78664;SDS011;67981;51.022;-2.870;2023-04-23T12:31:47;10.80;;;5.95;;
78664;SDS011;67981;51.022;-2.870;2023-04-23T12:34:13;9.93;;;7.00;;
78664;SDS011;67981;51.022;-2.870;2023-04-23T12:36:52;9.55;;;6.43;;
78664;SDS011;67981;51.022;-2.870;2023-04-23T12:41:50;8.45;;;4.88;;
78664;SDS011;67981;51.022;-2.870;2023-04-23T12:44:17;7.00;;;4.47;;
78664;SDS011;67981;51.022;-2.870;2023-04-23T12:46:43;8.52;;;4.70;;
78664;SDS011;67981;51.022;-2.870;2023-04-23T12:49:08;8.50;;;5.32;;
78664;SDS011;67981;51.022;-2.870;2023-04-23T12:51:33;7.78;;;4.95;;
78664;SDS011;67981;51.022;-2.870;2023-04-23T12:53:59;7.55;;;6.03;;
78664;SDS011;67981;51.022;-2.870;2023-04-23T12:56:24;8.48;;;5.65;;
78664;SDS011;67981;51.022;-2.870;2023-04-23T12:58:50;11.60;;;6.70;;
78664;SDS011;67981;51.022;-2.870;2023-04-23T13:01:16;10.02;;;6.50;;
78664;SDS011;67981;51.022;-2.870;2023-04-23T13:03:41;10.30;;;4.38;;
78664;SDS011;67981;51.022;-2.870;2023-04-23T13:06:06;8.65;;;4.75;;
78664;SDS011;67981;51.022;-2.870;2023-04-23T13:08:32;6.95;;;4.57;;
78664;SDS011;67981;51.022;-2.870;2023-04-23T13:10:58;6.53;;;4.57;;
78664;SDS011;67981;51.022;-2.870;2023-04-23T13:13:24;5.15;;;4.03;;
78664;SDS011;67981;51.022;-2.870;2023-04-23T13:15:51;8.13;;;4.07;;
78664;SDS011;67981;51.022;-2.870;2023-04-23T13:18:16;5.82;;;4.10;;
78664;SDS011;67981;51.022;-2.870;2023-04-23T13:20:42;7.10;;;3.23;;
78664;SDS011;67981;51.022;-2.870;2023-04-23T13:23:07;5.00;;;3.70;;
78664;SDS011;67981;51.022;-2.870;2023-04-23T13:25:33;4.57;;;3.33;;
78664;SDS011;67981;51.022;-2.870;2023-04-23T13:27:59;6.30;;;2.90;;
78664;SDS011;67981;51.022;-2.870;2023-04-23T13:30:24;5.72;;;3.28;;
78664;SDS011;67981;51.022;-2.870;2023-04-23T13:32:49;3.67;;;2.87;;
78664;SDS011;67981;51.022;-2.870;2023-04-23T13:35:15;4.32;;;2.42;;
78664;SDS011;67981;51.022;-2.870;2023-04-23T13:37:41;6.00;;;3.95;;
78664;SDS011;67981;51.022;-2.870;2023-04-23T13:40:07;6.32;;;3.78;;
78664;SDS011;67981;51.022;-2.870;2023-04-23T13:42:32;6.90;;;3.70;;
78664;SDS011;67981;51.022;-2.870;2023-04-23T13:44:58;5.28;;;3.53;;
78664;SDS011;67981;51.022;-2.870;2023-04-23T13:47:23;4.85;;;2.55;;
78664;SDS011;67981;51.022;-2.870;2023-04-23T13:49:50;4.25;;;3.03;;
78664;SDS011;67981;51.022;-2.870;2023-04-23T13:52:16;3.88;;;2.67;;
78664;SDS011;67981;51.022;-2.870;2023-04-23T13:54:41;4.45;;;2.75;;
78664;SDS011;67981;51.022;-2.870;2023-04-23T13:57:06;4.78;;;2.97;;
78664;SDS011;67981;51.022;-2.870;2023-04-23T13:59:32;4.40;;;2.60;;
78664;SDS011;67981;51.022;-2.870;2023-04-23T14:01:57;7.95;;;2.38;;
78664;SDS011;67981;51.022;-2.870;2023-04-23T14:04:23;4.90;;;2.90;;
78664;SDS011;67981;51.022;-2.870;2023-04-23T14:06:48;5.70;;;2.95;;
78664;SDS011;67981;51.022;-2.870;2023-04-23T14:09:14;5.15;;;2.75;;
78664;SDS011;67981;51.022;-2.870;2023-04-23T14:11:39;4.70;;;2.78;;
78664;SDS011;67981;51.022;-2.870;2023-04-23T14:14:05;4.68;;;3.10;;
78664;SDS011;67981;51.022;-2.870;2023-04-23T14:16:31;5.20;;;3.67;;
78664;SDS011;67981;51.022;-2.870;2023-04-23T14:18:57;4.90;;;2.58;;
78664;SDS011;67981;51.022;-2.870;2023-04-23T14:21:22;5.20;;;3.38;;
78664;SDS011;67981;51.022;-2.870;2023-04-23T14:23:48;4.57;;;2.63;;
78664;SDS011;67981;51.022;-2.870;2023-04-23T14:26:20;3.63;;;2.92;;
78664;SDS011;67981;51.022;-2.870;2023-04-23T14:28:52;4.68;;;2.63;;
78664;SDS011;67981;51.022;-2.870;2023-04-23T14:31:22;4.38;;;2.67;;
78664;SDS011;67981;51.022;-2.870;2023-04-23T14:33:47;3.65;;;2.50;;
78664;SDS011;67981;51.022;-2.870;2023-04-23T14:36:12;4.38;;;2.63;;